Time;durP1;ratioP1;P1;durP2;ratioP2;P2;SDS_P1;SDS_P2;PMS_P1;PMS_P2;Temp;Humidity;BMP_temperature;BMP_pressure;BME280_temperature;BME280_humidity;BME280_pressure;Samples;Min_cycle;Max_cycle;Signal;HPM_P1;HPM_P2
2023/03/07 00:00:15;;;;;;;23.00;10.55;;;;;;;2.35;100.00;97048.28;2552141;28;20052;-82
2023/03/07 00:01:50;;;;;;;22.83;10.02;;;;;;;2.11;100.00;97040.94;2552194;29;20323;-84
2023/03/07 00:03:06;;;;;;;20.80;10.18;;;;;;;2.18;100.00;97040.81;2551743;29;20594;-82
2023/03/07 00:04:22;;;;;;;23.80;10.88;;;;;;;2.34;100.00;97036.25;2551283;29;20145;-82
2023/03/07 00:05:38;;;;;;;23.50;11.95;;;;;;;2.28;100.00;97039.78;2541424;29;20052;-82
2023/03/07 00:06:54;;;;;;;24.83;11.73;;;;;;;2.13;100.00;97040.88;2545102;29;20134;-86
2023/03/07 00:08:11;;;;;;;23.90;10.43;;;;;;;2.02;100.00;97033.31;2552343;29;20078;-81
2023/03/07 00:09:26;;;;;;;24.15;11.80;;;;;;;1.87;100.00;97031.84;2552451;29;20117;-82
2023/03/07 00:10:41;;;;;;;26.13;11.48;;;;;;;2.07;100.00;97039.25;2552364;29;20047;-82
2023/03/07 00:11:57;;;;;;;24.90;11.13;;;;;;;2.18;100.00;97035.66;2542750;29;20150;-82
2023/03/07 00:13:13;;;;;;;24.25;11.30;;;;;;;2.36;100.00;97032.72;2544285;29;20051;-83
2023/03/07 00:14:29;;;;;;;27.40;12.45;;;;;;;2.42;100.00;97033.53;2551022;29;20172;-82
2023/03/07 00:15:44;;;;;;;27.15;12.68;;;;;;;2.29;100.00;97038.91;2552645;29;20459;-82
2023/03/07 00:17:00;;;;;;;24.50;11.25;;;;;;;2.30;100.00;97040.59;2550239;29;20055;-83
2023/03/07 00:18:16;;;;;;;24.92;11.30;;;;;;;2.36;100.00;97035.31;2552391;29;20062;-83
2023/03/07 00:19:32;;;;;;;26.17;11.52;;;;;;;2.37;100.00;97031.84;2550456;29;20490;-82
2023/03/07 00:20:56;;;;;;;26.02;11.00;;;;;;;2.28;100.00;97033.75;2552238;29;20051;-82
2023/03/07 00:22:12;;;;;;;28.58;11.25;;;;;;;2.07;100.00;97038.41;2551585;29;20048;-83
2023/03/07 00:23:28;;;;;;;26.83;11.10;;;;;;;2.09;100.00;97034.06;2551226;29;20479;-82
2023/03/07 00:24:46;;;;;;;22.13;10.70;;;;;;;2.14;100.00;97034.84;2552730;29;20059;-84
2023/03/07 00:26:05;;;;;;;25.95;11.38;;;;;;;2.37;100.00;97031.84;2551512;29;20474;-82
2023/03/07 00:27:21;;;;;;;26.52;10.75;;;;;;;2.44;100.00;97031.75;2551629;29;20051;-83
2023/03/07 00:28:37;;;;;;;23.30;10.82;;;;;;;2.38;100.00;97023.25;2550570;29;20170;-84
2023/03/07 00:29:52;;;;;;;23.23;10.85;;;;;;;2.36;100.00;97024.16;2552704;29;20517;-83
2023/03/07 00:31:10;;;;;;;23.92;11.43;;;;;;;2.54;100.00;97020.38;2553026;29;20118;-82
2023/03/07 00:32:26;;;;;;;22.73;10.68;;;;;;;2.42;100.00;97013.69;2551299;29;20051;-82
2023/03/07 00:33:42;;;;;;;23.60;10.38;;;;;;;2.40;100.00;97020.63;2551449;29;20075;-84
2023/03/07 00:34:59;;;;;;;24.65;10.77;;;;;;;2.40;100.00;97020.63;2552358;29;20235;-82
2023/03/07 00:36:17;;;;;;;23.75;11.70;;;;;;;2.39;100.00;97018.91;2552158;29;20396;-83
2023/03/07 00:37:33;;;;;;;23.75;11.15;;;;;;;2.45;100.00;97015.38;2552560;29;20044;-84
2023/03/07 00:38:50;;;;;;;26.05;10.95;;;;;;;2.44;100.00;97011.09;2552613;29;20550;-82
2023/03/07 00:40:06;;;;;;;25.73;10.95;;;;;;;2.19;100.00;97008.94;2551350;29;20106;-82
2023/03/07 00:41:24;;;;;;;25.55;11.50;;;;;;;2.30;100.00;97011.31;2552266;29;20055;-84
2023/03/07 00:42:40;;;;;;;21.75;10.15;;;;;;;2.32;100.00;97007.84;2551548;28;20849;-83
2023/03/07 00:43:56;;;;;;;22.00;10.65;;;;;;;2.34;100.00;97006.09;2551332;28;20059;-82
2023/03/07 00:45:12;;;;;;;21.92;9.55;;;;;;;2.29;100.00;97002.75;2550104;29;20058;-82
2023/03/07 00:46:28;;;;;;;20.67;10.02;;;;;;;2.24;100.00;97004.56;2552776;29;20066;-83
2023/03/07 00:47:43;;;;;;;19.77;10.10;;;;;;;2.35;100.00;96997.44;2553490;29;20047;-82
2023/03/07 00:48:59;;;;;;;19.92;9.02;;;;;;;2.31;100.00;96998.41;2550425;29;20118;-82
2023/03/07 00:50:15;;;;;;;19.70;10.10;;;;;;;2.26;100.00;96997.63;2551124;29;20134;-82
2023/03/07 00:51:30;;;;;;;18.80;8.95;;;;;;;2.24;100.00;96994.25;2551864;29;20051;-85
2023/03/07 00:52:46;;;;;;;17.35;7.65;;;;;;;2.24;100.00;96991.66;2551903;29;20059;-82
2023/03/07 00:54:02;;;;;;;19.48;8.98;;;;;;;2.33;100.00;96983.72;2550199;29;20120;-84
2023/03/07 00:55:18;;;;;;;20.15;9.68;;;;;;;2.36;100.00;96981.06;2551768;29;20107;-83
2023/03/07 00:56:33;;;;;;;18.13;8.52;;;;;;;2.29;100.00;96981.22;2551920;29;20055;-82
2023/03/07 00:57:49;;;;;;;26.17;9.63;;;;;;;2.25;100.00;96977.88;2550519;29;20070;-82
2023/03/07 00:59:05;;;;;;;20.77;9.32;;;;;;;2.36;100.00;96982.81;2551208;29;20047;-82
2023/03/07 01:00:21;;;;;;;20.33;9.75;;;;;;;2.29;100.00;96971.75;2552718;29;20059;-84
2023/03/07 01:01:37;;;;;;;19.23;8.85;;;;;;;2.35;100.00;96975.97;2550043;29;20057;-84
2023/03/07 01:02:52;;;;;;;21.30;9.65;;;;;;;2.34;100.00;96975.09;2551951;29;20055;-83
2023/03/07 01:04:08;;;;;;;22.50;9.68;;;;;;;2.41;100.00;96970.66;2550591;29;20043;-83
2023/03/07 01:05:24;;;;;;;20.00;8.90;;;;;;;2.35;100.00;96969.03;2552079;28;20066;-82
2023/03/07 01:06:40;;;;;;;20.17;8.98;;;;;;;2.39;100.00;96962.97;2552104;29;20051;-82
2023/03/07 01:07:55;;;;;;;20.85;9.73;;;;;;;2.42;100.00;96963.78;2550771;29;20134;-82
2023/03/07 01:09:11;;;;;;;22.98;9.75;;;;;;;2.51;100.00;96954.09;2549726;29;20094;-83
2023/03/07 01:10:28;;;;;;;23.67;9.85;;;;;;;2.53;100.00;96952.34;2551517;29;20067;-82
2023/03/07 01:11:43;;;;;;;20.02;9.38;;;;;;;2.45;100.00;96956.81;2550230;29;20397;-82
2023/03/07 01:12:59;;;;;;;22.38;10.85;;;;;;;2.45;100.00;96963.72;2550797;29;20048;-82
2023/03/07 01:14:15;;;;;;;20.42;10.57;;;;;;;2.47;100.00;96965.41;2551457;29;20052;-84
2023/03/07 01:15:31;;;;;;;21.63;9.70;;;;;;;2.48;100.00;96961.94;2550432;29;20506;-86
2023/03/07 01:16:46;;;;;;;20.70;9.52;;;;;;;2.42;100.00;96964.59;2550685;29;20058;-82
2023/03/07 01:18:03;;;;;;;22.05;9.23;;;;;;;2.43;100.00;96965.47;2550261;29;20138;-82
2023/03/07 01:19:19;;;;;;;19.15;9.27;;;;;;;2.52;100.00;96963.56;2549962;29;20051;-82
2023/03/07 01:20:37;;;;;;;20.65;9.50;;;;;;;2.60;100.00;96962.56;2551321;29;20151;-82
2023/03/07 01:21:52;;;;;;;17.60;7.80;;;;;;;2.51;100.00;96961.00;2551457;29;20076;-82
2023/03/07 01:23:08;;;;;;;18.80;9.10;;;;;;;2.55;100.00;96957.50;2552089;28;20075;-83
2023/03/07 01:24:24;;;;;;;18.27;8.27;;;;;;;2.47;100.00;96959.34;2552468;29;20047;-82
2023/03/07 01:25:41;;;;;;;22.10;10.30;;;;;;;2.49;100.00;96958.47;2550276;29;20649;-85
2023/03/07 01:26:56;;;;;;;15.48;7.15;;;;;;;2.40;100.00;96958.63;2550425;29;20052;-83
2023/03/07 01:28:12;;;;;;;19.40;8.85;;;;;;;2.54;100.00;96958.38;2551218;29;20118;-83
2023/03/07 01:29:28;;;;;;;21.48;9.45;;;;;;;2.56;100.00;96954.03;2551646;29;20080;-84
2023/03/07 01:30:44;;;;;;;19.02;9.77;;;;;;;2.64;100.00;96948.69;2552476;29;20099;-85
2023/03/07 01:31:59;;;;;;;17.58;8.77;;;;;;;2.54;100.00;96945.47;2549923;29;20052;-87
2023/03/07 01:33:15;;;;;;;20.75;9.23;;;;;;;2.55;100.00;96952.31;2550361;29;20482;-83
2023/03/07 01:34:30;;;;;;;21.00;9.63;;;;;;;2.62;100.00;96943.56;2551391;29;20055;-82
2023/03/07 01:35:46;;;;;;;14.93;7.72;;;;;;;2.60;100.00;96942.72;2549732;29;20091;-85
2023/03/07 01:37:01;;;;;;;22.25;9.82;;;;;;;2.56;100.00;96941.09;2551425;29;20062;-83
2023/03/07 01:38:17;;;;;;;21.42;10.25;;;;;;;2.63;100.00;96937.50;2552443;29;20141;-83
2023/03/07 01:39:33;;;;;;;16.30;7.00;;;;;;;2.43;100.00;96937.91;2550148;29;20054;-83
2023/03/07 01:40:49;;;;;;;14.35;7.50;;;;;;;2.47;100.00;96933.53;2552845;29;20493;-82
2023/03/07 01:42:04;;;;;;;11.68;6.10;;;;;;;2.51;100.00;96932.56;2551169;29;20062;-83
2023/03/07 01:43:31;;;;;;;14.15;7.82;;;;;;;2.58;100.00;96939.34;2549600;29;20163;-83
2023/03/07 01:45:04;;;;;;;17.08;7.90;;;;;;;2.54;100.00;96935.94;2551517;29;20109;-83
2023/03/07 01:46:41;;;;;;;21.48;8.85;;;;;;;2.47;100.00;96931.81;2550474;29;20043;-84
2023/03/07 01:47:57;;;;;;;18.00;8.32;;;;;;;2.55;100.00;96931.66;2550482;29;20458;-82
2023/03/07 01:49:32;;;;;;;19.15;8.15;;;;;;;2.48;100.00;96927.47;2551575;29;20106;-82
2023/03/07 01:50:48;;;;;;;13.82;6.70;;;;;;;2.48;100.00;96922.31;2551776;29;20652;-84
2023/03/07 01:52:08;;;;;;;16.38;7.40;;;;;;;2.44;100.00;96929.25;2551649;29;20059;-82
2023/03/07 01:53:24;;;;;;;22.85;9.48;;;;;;;2.57;100.00;96924.72;2550961;29;20110;-82
2023/03/07 01:54:47;;;;;;;20.77;9.90;;;;;;;2.68;100.00;96922.75;2550292;29;20138;-82
2023/03/07 01:56:05;;;;;;;15.02;7.60;;;;;;;2.62;100.00;96919.47;2552032;29;20151;-83
2023/03/07 01:57:28;;;;;;;19.02;8.95;;;;;;;2.55;100.00;96910.97;2550072;28;20150;-88
2023/03/07 01:58:45;;;;;;;17.83;8.65;;;;;;;2.74;100.00;96914.03;2551862;29;20132;-83
2023/03/07 02:00:07;;;;;;;17.98;9.15;;;;;;;2.67;100.00;96909.88;2550696;29;20055;-81
2023/03/07 02:01:24;;;;;;;20.65;7.97;;;;;;;2.62;100.00;96907.38;2549720;29;20478;-82
2023/03/07 02:02:44;;;;;;;19.77;8.88;;;;;;;2.64;100.00;96904.78;2551024;29;20077;-82
2023/03/07 02:04:16;;;;;;;16.92;7.88;;;;;;;2.73;100.00;96903.72;2549130;29;20078;-82
2023/03/07 02:05:37;;;;;;;15.23;7.35;;;;;;;2.61;100.00;96904.84;2551560;29;20126;-87
2023/03/07 02:06:52;;;;;;;19.73;8.95;;;;;;;2.69;100.00;96902.94;2552775;29;20055;-83
2023/03/07 02:08:12;;;;;;;15.75;7.70;;;;;;;2.59;100.00;96904.03;2549687;29;20107;-83
2023/03/07 02:09:31;;;;;;;19.63;8.30;;;;;;;2.74;100.00;96906.28;2551738;29;20058;-83
2023/03/07 02:10:48;;;;;;;20.48;8.52;;;;;;;2.74;100.00;96900.25;2550343;29;20055;-83
2023/03/07 02:12:04;;;;;;;17.77;8.32;;;;;;;2.58;100.00;96908.31;2551950;29;20566;-82
2023/03/07 02:13:21;;;;;;;18.45;7.85;;;;;;;2.67;100.00;96902.97;2551594;29;20047;-83
2023/03/07 02:14:37;;;;;;;22.08;8.68;;;;;;;2.68;100.00;96902.09;2550289;29;20422;-83
2023/03/07 02:15:54;;;;;;;16.23;7.95;;;;;;;2.78;100.00;96902.75;2550583;29;20047;-82
2023/03/07 02:17:10;;;;;;;17.40;8.32;;;;;;;2.58;100.00;96899.72;2550009;29;20417;-83
2023/03/07 02:18:29;;;;;;;19.90;8.60;;;;;;;2.67;100.00;96904.69;2552425;29;20079;-83
2023/03/07 02:20:07;;;;;;;16.40;6.78;;;;;;;2.78;100.00;96896.72;2549984;29;20060;-83
2023/03/07 02:21:38;;;;;;;16.65;6.05;;;;;;;2.69;100.00;96892.59;2550744;29;20124;-83
2023/03/07 02:22:54;;;;;;;16.90;7.27;;;;;;;2.66;100.00;96898.69;2549999;29;20484;-83
2023/03/07 02:24:16;;;;;;;13.65;6.85;;;;;;;2.71;100.00;96896.00;2551504;29;20869;-83
2023/03/07 02:26:14;;;;;;;13.27;6.45;;;;;;;2.75;100.00;96886.44;2551859;29;20089;-83
2023/03/07 02:27:33;;;;;;;15.45;7.47;;;;;;;2.83;100.00;96894.88;2515080;29;20509;-82
2023/03/07 02:28:49;;;;;;;18.25;8.85;;;;;;;2.86;100.00;96886.19;2515085;29;20053;-80
2023/03/07 02:30:06;;;;;;;17.63;8.50;;;;;;;2.83;100.00;96898.31;2542891;29;20061;-85
2023/03/07 02:31:23;;;;;;;22.98;8.63;;;;;;;2.79;100.00;96890.66;2550696;29;20059;-83
2023/03/07 02:32:38;;;;;;;18.38;8.43;;;;;;;2.88;100.00;96890.47;2551327;29;20050;-82
2023/03/07 02:33:54;;;;;;;20.35;9.57;;;;;;;2.87;100.00;96885.34;2550898;29;20152;-82
2023/03/07 02:35:14;;;;;;;21.10;8.95;;;;;;;2.94;100.00;96884.31;2551131;29;20067;-82
2023/03/07 02:36:33;;;;;;;19.35;8.90;;;;;;;2.81;100.00;96887.16;2549285;29;20098;-83
2023/03/07 02:37:54;;;;;;;18.17;8.50;;;;;;;2.77;100.00;96897.59;2550351;29;20043;-82
2023/03/07 02:39:10;;;;;;;17.38;7.70;;;;;;;2.85;100.00;96893.13;2550566;29;20939;-83
2023/03/07 02:40:29;;;;;;;18.30;8.00;;;;;;;2.75;100.00;96886.44;2550281;29;20052;-83
2023/03/07 02:41:44;;;;;;;20.52;8.68;;;;;;;2.87;100.00;96887.94;2550408;29;20583;-81
2023/03/07 02:43:08;;;;;;;18.80;8.45;;;;;;;2.94;100.00;96892.94;2549956;28;20051;-81
2023/03/07 02:44:24;;;;;;;18.13;8.75;;;;;;;2.94;100.00;96892.06;2550780;29;20066;-81
2023/03/07 02:45:39;;;;;;;19.60;9.07;;;;;;;2.98;100.00;96891.09;2551874;29;20058;-81
2023/03/07 02:46:55;;;;;;;17.70;8.52;;;;;;;2.92;100.00;96889.50;2550495;29;20039;-81
2023/03/07 02:48:11;;;;;;;19.35;9.13;;;;;;;2.90;100.00;96893.84;2551665;28;20521;-81
2023/03/07 02:49:26;;;;;;;20.77;8.93;;;;;;;2.82;100.00;96888.84;2550410;29;20055;-83
2023/03/07 02:50:42;;;;;;;19.15;9.00;;;;;;;2.94;100.00;96884.31;2550659;29;20143;-86
2023/03/07 02:51:59;;;;;;;17.65;8.40;;;;;;;2.97;100.00;96884.22;2549648;29;20062;-81
2023/03/07 02:53:15;;;;;;;21.23;9.35;;;;;;;2.89;100.00;96884.41;2551062;28;20070;-81
2023/03/07 02:54:30;;;;;;;20.80;8.25;;;;;;;2.80;100.00;96888.03;2551791;29;20048;-80
2023/03/07 02:55:46;;;;;;;19.55;8.88;;;;;;;2.82;100.00;96880.28;2551169;29;20154;-86
2023/03/07 02:57:02;;;;;;;14.10;5.85;;;;;;;2.84;100.00;96881.09;2550172;29;20048;-84
2023/03/07 02:58:18;;;;;;;18.08;7.88;;;;;;;2.71;100.00;96889.97;2548972;29;20047;-83
2023/03/07 02:59:33;;;;;;;15.65;7.53;;;;;;;2.60;100.00;96875.56;2549924;29;20062;-84
2023/03/07 03:00:49;;;;;;;15.73;7.15;;;;;;;2.77;100.00;96882.94;2551554;29;20059;-83
2023/03/07 03:02:04;;;;;;;18.15;7.68;;;;;;;2.90;100.00;96877.50;2551250;29;20059;-83
2023/03/07 03:03:20;;;;;;;13.57;5.05;;;;;;;2.73;100.00;96877.88;2550540;29;20075;-81
2023/03/07 03:04:36;;;;;;;12.70;5.95;;;;;;;2.74;100.00;96872.69;2551768;29;20491;-83
2023/03/07 03:05:51;;;;;;;17.70;8.10;;;;;;;2.82;100.00;96867.34;2551696;29;20103;-80
2023/03/07 03:07:07;;;;;;;16.60;7.35;;;;;;;2.89;100.00;96873.22;2549433;29;20162;-82
2023/03/07 03:08:23;;;;;;;12.57;6.20;;;;;;;2.81;100.00;96869.06;2549068;29;20110;-82
2023/03/07 03:09:38;;;;;;;12.55;6.45;;;;;;;2.68;100.00;96871.09;2551249;29;20055;-82
2023/03/07 03:10:54;;;;;;;13.50;7.15;;;;;;;2.81;100.00;96861.31;2549458;29;20059;-83
2023/03/07 03:12:10;;;;;;;15.98;8.07;;;;;;;2.92;100.00;96858.47;2551464;29;20051;-82
2023/03/07 03:13:26;;;;;;;14.55;6.57;;;;;;;2.87;100.00;96862.91;2549947;29;20083;-82
2023/03/07 03:14:42;;;;;;;12.95;6.05;;;;;;;2.74;100.00;96866.66;2550730;29;20415;-86
2023/03/07 03:15:58;;;;;;;15.85;7.18;;;;;;;2.78;100.00;96865.69;2552191;29;20051;-82
2023/03/07 03:17:15;;;;;;;8.75;5.68;;;;;;;2.48;100.00;96862.91;2549549;29;20476;-88
2023/03/07 03:18:31;;;;;;;9.88;5.07;;;;;;;2.46;100.00;96850.03;2551025;29;20078;-84
2023/03/07 03:19:47;;;;;;;15.48;7.45;;;;;;;2.73;100.00;96857.19;2551939;29;20047;-82
2023/03/07 03:21:07;;;;;;;9.23;5.10;;;;;;;2.75;100.00;96858.88;2550111;29;20048;-81
2023/03/07 03:22:23;;;;;;;14.32;6.03;;;;;;;2.72;100.00;96860.69;2551848;29;20074;-82
2023/03/07 03:23:39;;;;;;;16.40;7.30;;;;;;;2.77;100.00;96854.53;2551670;29;20088;-82
2023/03/07 03:24:55;;;;;;;15.95;7.78;;;;;;;2.86;100.00;96858.63;2550389;28;20074;-82
2023/03/07 03:26:10;;;;;;;16.58;6.75;;;;;;;2.84;100.00;96852.66;2551207;29;20134;-85
2023/03/07 03:27:26;;;;;;;13.05;6.20;;;;;;;2.75;100.00;96860.59;2551532;29;20063;-82
2023/03/07 03:28:42;;;;;;;13.50;6.32;;;;;;;2.87;100.00;96854.31;2551798;29;20133;-82
2023/03/07 03:29:57;;;;;;;13.43;5.43;;;;;;;2.69;100.00;96851.25;2553001;29;20051;-82
2023/03/07 03:31:16;;;;;;;15.80;6.90;;;;;;;2.83;100.00;96850.94;2552223;29;20138;-83
2023/03/07 03:32:32;;;;;;;13.70;6.53;;;;;;;2.75;100.00;96856.28;2551649;29;20051;-82
2023/03/07 03:33:49;;;;;;;14.48;6.97;;;;;;;2.60;100.00;96856.63;2552464;29;20058;-86
2023/03/07 03:35:06;;;;;;;10.38;4.57;;;;;;;2.68;100.00;96849.53;2551535;29;20043;-82
2023/03/07 03:36:24;;;;;;;10.32;4.72;;;;;;;2.78;100.00;96851.06;2552857;28;20939;-83
2023/03/07 03:37:40;;;;;;;12.20;5.38;;;;;;;2.74;100.00;96846.84;2552802;29;20560;-82
2023/03/07 03:38:57;;;;;;;13.90;6.35;;;;;;;2.80;100.00;96849.28;2553758;29;20094;-81
2023/03/07 03:40:13;;;;;;;11.73;6.40;;;;;;;2.60;100.00;96847.13;2551143;29;20509;-84
2023/03/07 03:41:28;;;;;;;16.20;5.53;;;;;;;2.75;100.00;96845.09;2553080;29;20062;-80
2023/03/07 03:42:44;;;;;;;8.35;4.82;;;;;;;2.67;100.00;96843.53;2551321;29;20056;-82
2023/03/07 03:44:00;;;;;;;11.50;4.90;;;;;;;2.58;100.00;96838.56;2551787;28;20117;-82
2023/03/07 03:45:15;;;;;;;13.88;5.80;;;;;;;2.80;100.00;96854.44;2552016;29;20063;-82
2023/03/07 03:46:31;;;;;;;14.35;6.25;;;;;;;2.78;100.00;96850.19;2550680;29;20143;-82
2023/03/07 03:47:49;;;;;;;12.77;5.20;;;;;;;2.73;100.00;96845.16;2550935;29;20579;-84
2023/03/07 03:49:04;;;;;;;15.40;6.05;;;;;;;2.89;100.00;96847.38;2551758;29;20648;-82
2023/03/07 03:50:20;;;;;;;9.45;4.35;;;;;;;2.94;100.00;96850.69;2553336;29;20071;-84
2023/03/07 03:51:36;;;;;;;11.70;5.45;;;;;;;2.86;100.00;96845.72;2553066;29;20055;-82
2023/03/07 03:52:51;;;;;;;16.30;6.53;;;;;;;2.87;100.00;96842.22;2541407;29;20052;-81
2023/03/07 03:54:07;;;;;;;13.02;4.97;;;;;;;2.81;100.00;96838.06;2545451;29;20059;-83
2023/03/07 03:55:23;;;;;;;10.90;5.65;;;;;;;2.86;100.00;96839.66;2553635;29;20054;-84
2023/03/07 03:56:38;;;;;;;7.60;3.95;;;;;;;2.83;100.00;96836.28;2553679;29;20050;-85
2023/03/07 03:57:54;;;;;;;13.73;6.05;;;;;;;2.95;100.00;96836.88;2552061;29;20048;-83
2023/03/07 03:59:09;;;;;;;13.63;6.43;;;;;;;3.03;100.00;96844.47;2553128;29;20154;-85
2023/03/07 04:00:25;;;;;;;13.75;6.30;;;;;;;3.02;100.00;96837.59;2550818;29;20547;-86
2023/03/07 04:01:40;;;;;;;14.77;7.75;;;;;;;3.09;100.00;96846.91;2552544;29;20063;-83
2023/03/07 04:02:56;;;;;;;16.42;7.55;;;;;;;3.08;100.00;96832.28;2540379;29;20577;-81
2023/03/07 04:04:12;;;;;;;16.08;7.82;;;;;;;3.14;100.00;96832.13;2544271;29;20052;-82
2023/03/07 04:05:27;;;;;;;13.05;6.43;;;;;;;3.09;100.00;96829.66;2551557;29;20443;-82
2023/03/07 04:06:43;;;;;;;17.13;8.00;;;;;;;3.17;100.00;96826.03;2552562;29;20051;-82
2023/03/07 04:07:59;;;;;;;17.15;7.40;;;;;;;3.19;100.00;96826.84;2552902;29;20055;-83
2023/03/07 04:09:14;;;;;;;15.15;6.85;;;;;;;3.11;100.00;96827.03;2551746;29;20047;-82
2023/03/07 04:10:30;;;;;;;18.55;8.48;;;;;;;3.12;100.00;96820.97;2553426;29;20161;-84
2023/03/07 04:11:46;;;;;;;13.65;6.85;;;;;;;3.10;100.00;96830.50;2552129;29;20151;-83
2023/03/07 04:13:01;;;;;;;15.40;7.43;;;;;;;3.00;100.00;96829.03;2541235;29;20446;-84
2023/03/07 04:14:17;;;;;;;13.68;6.90;;;;;;;3.00;100.00;96821.28;2537845;29;20147;-89
2023/03/07 04:15:33;;;;;;;16.40;7.63;;;;;;;3.01;100.00;96826.41;2546121;29;20082;-83
2023/03/07 04:16:48;;;;;;;15.43;6.78;;;;;;;3.05;100.00;96825.44;2550740;29;20055;-83
2023/03/07 04:18:04;;;;;;;14.18;6.38;;;;;;;2.85;100.00;96817.28;2550236;28;20055;-84
2023/03/07 04:19:20;;;;;;;13.60;6.32;;;;;;;3.08;100.00;96814.19;2540780;29;20071;-83
2023/03/07 04:20:36;;;;;;;16.35;6.97;;;;;;;3.07;100.00;96817.63;2545674;29;20087;-83
2023/03/07 04:21:51;;;;;;;15.60;6.28;;;;;;;3.05;100.00;96815.09;2552109;28;20047;-83
2023/03/07 04:23:07;;;;;;;16.25;7.15;;;;;;;2.92;100.00;96814.53;2552116;29;20481;-83
2023/03/07 04:24:22;;;;;;;18.17;7.20;;;;;;;3.06;100.00;96814.22;2550474;29;20056;-84
2023/03/07 04:25:38;;;;;;;16.45;6.88;;;;;;;2.97;100.00;96810.13;2542645;29;20075;-88
2023/03/07 04:26:53;;;;;;;19.23;7.65;;;;;;;2.97;100.00;96811.84;2544912;29;20130;-87
2023/03/07 04:28:09;;;;;;;14.77;5.43;;;;;;;3.00;100.00;96800.59;2553541;29;20081;-84
2023/03/07 04:29:25;;;;;;;16.85;6.97;;;;;;;3.05;100.00;96801.31;2551721;29;20095;-84
2023/03/07 04:30:41;;;;;;;15.82;6.95;;;;;;;2.95;100.00;96801.56;2551104;29;20052;-81
2023/03/07 04:31:56;;;;;;;17.98;7.72;;;;;;;2.88;100.00;96801.75;2552534;29;20920;-84
2023/03/07 04:33:12;;;;;;;12.98;5.47;;;;;;;2.95;100.00;96808.44;2551138;29;20069;-89
2023/03/07 04:34:27;;;;;;;16.02;7.85;;;;;;;3.02;100.00;96803.97;2551120;29;20043;-84
2023/03/07 04:35:44;;;;;;;15.57;6.50;;;;;;;2.86;100.00;96804.34;2550110;29;20451;-82
2023/03/07 04:37:00;;;;;;;17.23;6.32;;;;;;;2.86;100.00;96803.47;2550404;28;20059;-82
2023/03/07 04:38:16;;;;;;;12.98;6.28;;;;;;;2.78;100.00;96799.38;2551123;29;20515;-81
2023/03/07 04:39:31;;;;;;;16.98;7.80;;;;;;;2.85;100.00;96799.19;2552005;29;20051;-81
2023/03/07 04:40:47;;;;;;;14.40;6.45;;;;;;;2.81;100.00;96801.88;2551121;29;20052;-85
2023/03/07 04:42:02;;;;;;;17.60;7.30;;;;;;;2.74;100.00;96802.91;2551522;29;20066;-82
2023/03/07 04:43:19;;;;;;;14.32;5.78;;;;;;;2.82;100.00;96800.97;2551952;29;20078;-85
2023/03/07 04:44:34;;;;;;;16.05;7.25;;;;;;;2.96;100.00;96797.22;2550256;29;20100;-82
2023/03/07 04:45:51;;;;;;;13.30;5.25;;;;;;;2.63;100.00;96797.97;2551690;29;20048;-82
2023/03/07 04:47:07;;;;;;;9.95;5.15;;;;;;;2.69;100.00;96794.41;2550512;29;20988;-82
2023/03/07 04:48:22;;;;;;;8.05;3.97;;;;;;;2.70;100.00;96784.94;2551679;29;20135;-82
2023/03/07 04:49:38;;;;;;;12.93;6.32;;;;;;;2.72;100.00;96794.31;2552734;28;20070;-82
2023/03/07 04:50:53;;;;;;;20.52;8.35;;;;;;;2.90;100.00;96787.88;2551209;29;20058;-82
2023/03/07 04:52:09;;;;;;;15.65;6.75;;;;;;;2.80;100.00;96789.84;2551489;29;20059;-85
2023/03/07 04:53:25;;;;;;;8.30;3.42;;;;;;;2.80;100.00;96789.00;2551595;29;20078;-84
2023/03/07 04:54:41;;;;;;;15.05;6.97;;;;;;;2.91;100.00;96786.16;2551374;29;20050;-83
2023/03/07 04:55:58;;;;;;;10.55;5.78;;;;;;;2.77;100.00;96783.88;2550171;29;20531;-87
2023/03/07 04:57:14;;;;;;;12.98;5.90;;;;;;;2.87;100.00;96780.19;2551659;29;20519;-84
2023/03/07 04:58:30;;;;;;;11.85;5.43;;;;;;;2.78;100.00;96786.44;2551254;29;20130;-82
2023/03/07 04:59:46;;;;;;;11.68;5.28;;;;;;;2.85;100.00;96779.38;2552480;29;20510;-87
2023/03/07 05:01:03;;;;;;;13.90;5.78;;;;;;;2.82;100.00;96771.72;2550228;29;20094;-82
2023/03/07 05:02:18;;;;;;;8.95;3.78;;;;;;;2.83;100.00;96771.66;2551032;29;20134;-83
2023/03/07 05:03:34;;;;;;;19.35;7.60;;;;;;;2.89;100.00;96775.00;2552638;29;20047;-81
2023/03/07 05:04:50;;;;;;;10.27;5.05;;;;;;;2.79;100.00;96769.19;2551772;29;20066;-85
2023/03/07 05:06:09;;;;;;;11.20;5.82;;;;;;;2.62;100.00;96767.84;2549998;29;20051;-82
2023/03/07 05:07:24;;;;;;;12.48;4.70;;;;;;;2.75;100.00;96762.41;2540456;29;20080;-84
2023/03/07 05:08:40;;;;;;;14.88;6.63;;;;;;;2.85;100.00;96765.59;2543984;29;20055;-82
2023/03/07 05:09:56;;;;;;;13.90;6.88;;;;;;;2.89;100.00;96764.66;2550667;29;20150;-84
2023/03/07 05:11:11;;;;;;;14.80;6.68;;;;;;;2.94;100.00;96757.63;2550688;29;20060;-82
2023/03/07 05:12:27;;;;;;;14.70;6.70;;;;;;;2.82;100.00;96769.13;2550255;29;20566;-83
2023/03/07 05:13:43;;;;;;;16.33;6.68;;;;;;;2.88;100.00;96763.78;2551130;29;20055;-83
2023/03/07 05:14:59;;;;;;;10.18;5.13;;;;;;;2.83;100.00;96763.06;2551091;29;20159;-82
2023/03/07 05:16:16;;;;;;;11.57;4.80;;;;;;;2.83;100.00;96760.50;2549601;29;20475;-82
2023/03/07 05:17:32;;;;;;;16.63;6.63;;;;;;;2.93;100.00;96756.81;2550986;29;20051;-82
2023/03/07 05:18:47;;;;;;;13.95;5.63;;;;;;;2.80;100.00;96745.06;2552794;29;20062;-81
2023/03/07 05:20:03;;;;;;;10.80;5.45;;;;;;;2.75;100.00;96760.66;2551609;29;20111;-86
2023/03/07 05:21:19;;;;;;;13.10;5.35;;;;;;;2.85;100.00;96748.38;2552071;29;20502;-82
2023/03/07 05:22:35;;;;;;;10.55;4.65;;;;;;;2.80;100.00;96750.22;2551968;29;20047;-89
2023/03/07 05:23:51;;;;;;;10.48;5.53;;;;;;;2.90;100.00;96748.25;2550248;29;20455;-83
2023/03/07 05:25:07;;;;;;;14.00;5.60;;;;;;;2.91;100.00;96750.78;2551887;29;20535;-82
2023/03/07 05:26:22;;;;;;;15.75;7.03;;;;;;;2.96;100.00;96761.03;2551555;29;20522;-82
2023/03/07 05:27:38;;;;;;;11.32;5.05;;;;;;;2.88;100.00;96752.63;2549969;29;20459;-86
2023/03/07 05:28:53;;;;;;;12.30;5.40;;;;;;;2.88;100.00;96748.28;2552440;29;20396;-82
2023/03/07 05:30:10;;;;;;;16.23;6.68;;;;;;;3.00;100.00;96749.72;2550963;29;20138;-81
2023/03/07 05:31:26;;;;;;;21.42;6.80;;;;;;;2.86;100.00;96747.47;2550300;29;20052;-82
2023/03/07 05:32:42;;;;;;;11.15;5.88;;;;;;;2.87;100.00;96756.94;2551282;29;20683;-83
2023/03/07 05:33:58;;;;;;;11.88;4.53;;;;;;;2.79;100.00;96756.25;2550835;29;20396;-82
2023/03/07 05:35:13;;;;;;;10.90;5.18;;;;;;;2.78;100.00;96760.59;2549715;29;20059;-83
2023/03/07 05:36:29;;;;;;;11.10;5.57;;;;;;;2.75;100.00;96764.97;2551278;28;20051;-82
2023/03/07 05:37:45;;;;;;;16.73;7.22;;;;;;;2.87;100.00;96762.09;2550914;29;20055;-83
2023/03/07 05:39:01;;;;;;;15.27;6.57;;;;;;;2.77;100.00;96764.06;2551721;29;20051;-81
2023/03/07 05:40:17;;;;;;;16.13;7.53;;;;;;;2.71;100.00;96777.13;2550079;29;20784;-82
2023/03/07 05:41:33;;;;;;;7.50;4.07;;;;;;;2.63;100.00;96766.13;2550505;29;20499;-83
2023/03/07 05:42:48;;;;;;;16.95;6.95;;;;;;;2.66;100.00;96769.50;2550970;28;20051;-83
2023/03/07 05:44:04;;;;;;;17.20;7.20;;;;;;;2.87;100.00;96771.59;2551536;29;20063;-82
2023/03/07 05:45:20;;;;;;;17.17;7.07;;;;;;;2.97;100.00;96771.34;2549998;29;20435;-82
2023/03/07 05:46:35;;;;;;;16.60;6.50;;;;;;;2.88;100.00;96768.13;2551451;29;20062;-83
2023/03/07 05:47:51;;;;;;;13.90;5.47;;;;;;;2.75;100.00;96762.41;2550564;29;20048;-83
2023/03/07 05:49:07;;;;;;;12.48;5.82;;;;;;;2.78;100.00;96768.34;2550678;29;20067;-83
2023/03/07 05:50:22;;;;;;;12.13;6.53;;;;;;;2.60;100.00;96763.63;2551528;29;20083;-82
2023/03/07 05:51:38;;;;;;;12.73;5.35;;;;;;;2.81;100.00;96768.25;2549266;29;20141;-82
2023/03/07 05:52:53;;;;;;;14.07;6.25;;;;;;;2.69;100.00;96758.22;2551482;29;20058;-84
2023/03/07 05:54:09;;;;;;;11.60;5.78;;;;;;;2.70;100.00;96756.50;2551967;29;20071;-82
2023/03/07 05:55:25;;;;;;;17.83;7.20;;;;;;;2.75;100.00;96763.25;2550228;29;20052;-83
2023/03/07 05:56:40;;;;;;;13.18;6.20;;;;;;;2.72;100.00;96767.63;2549864;29;20051;-83